createdAt,value
2018-08-24T00:00:16.991Z,76.90
2018-08-24T00:02:47.591Z,77.00
2018-08-24T00:05:16.537Z,76.60
2018-08-24T00:07:45.529Z,77.10
2018-08-24T00:10:14.563Z,76.90
2018-08-24T00:12:43.516Z,76.90
2018-08-24T00:15:12.377Z,76.60
2018-08-24T00:17:45.552Z,76.20
2018-08-24T00:20:14.370Z,76.60
2018-08-24T00:22:43.615Z,76.90
2018-08-24T00:25:12.495Z,76.40
2018-08-24T00:27:41.384Z,76.50
2018-08-24T00:30:10.453Z,76.50
2018-08-24T00:32:39.294Z,76.40
2018-08-24T00:35:08.196Z,76.60
2018-08-24T00:37:37.388Z,76.20
2018-08-24T00:40:06.545Z,76.30
2018-08-24T00:42:35.567Z,76.50
2018-08-24T00:45:06.196Z,76.40
2018-08-24T00:47:35.154Z,76.60
2018-08-24T00:50:04.098Z,76.70
2018-08-24T00:52:33.125Z,76.90
2018-08-24T00:55:01.963Z,77.00
2018-08-24T00:57:30.997Z,77.30
2018-08-24T01:00:00.165Z,77.70
2018-08-24T01:02:29.020Z,78.40
2018-08-24T01:04:57.852Z,79.60
2018-08-24T01:07:26.814Z,80.30
2018-08-24T01:09:55.773Z,80.60
2018-08-24T01:12:24.625Z,81.00
2018-08-24T01:14:53.491Z,80.80
2018-08-24T01:17:27.597Z,81.60
2018-08-24T01:19:56.441Z,81.80
2018-08-24T01:22:25.320Z,82.10
2018-08-24T01:24:54.151Z,82.30
2018-08-24T01:27:23.088Z,82.70
2018-08-24T01:29:51.946Z,83.00
2018-08-24T01:32:20.752Z,83.60
2018-08-24T01:34:49.756Z,84.10
2018-08-24T01:37:18.688Z,84.70
2018-08-24T01:39:47.570Z,85.40
2018-08-24T01:42:16.373Z,86.50
2018-08-24T01:44:45.247Z,86.90
2018-08-24T01:47:14.046Z,86.70
2018-08-24T01:49:43.070Z,87.90
2018-08-24T01:52:11.937Z,88.40
2018-08-24T01:54:40.747Z,89.20
2018-08-24T01:57:09.609Z,89.80
2018-08-24T01:59:38.513Z,89.70
2018-08-24T02:02:07.937Z,90.30
2018-08-24T02:04:36.818Z,90.50
2018-08-24T02:07:05.645Z,90.60
2018-08-24T02:09:34.497Z,91.10
2018-08-24T02:12:03.542Z,91.10
2018-08-24T02:14:37.752Z,91.30
2018-08-24T02:17:10.730Z,91.60
2018-08-24T02:19:44.890Z,91.50
2018-08-24T02:22:17.784Z,91.60
2018-08-24T02:24:46.652Z,91.90
2018-08-24T02:27:15.472Z,91.70
2018-08-24T02:29:44.412Z,91.90
2018-08-24T02:32:13.207Z,91.90
2018-08-24T02:34:42.055Z,92.00
2018-08-24T02:37:11.020Z,92.10
2018-08-24T02:39:39.876Z,92.00
2018-08-24T02:42:08.707Z,92.20
2018-08-24T02:44:37.694Z,92.20
2018-08-24T02:47:06.511Z,92.20
2018-08-24T02:49:35.353Z,92.30
2018-08-24T02:52:04.367Z,92.40
2018-08-24T02:54:33.186Z,92.50
2018-08-24T02:57:02.151Z,92.50
2018-08-24T02:59:31.000Z,92.60
2018-08-24T03:02:00.793Z,92.70
2018-08-24T03:04:29.886Z,92.80
2018-08-24T03:06:58.742Z,93.00
2018-08-24T03:09:27.649Z,93.20
2018-08-24T03:11:56.624Z,93.30
2018-08-24T03:14:25.597Z,93.40
2018-08-24T03:17:00.063Z,93.50
2018-08-24T03:19:28.882Z,93.50
2018-08-24T03:21:57.755Z,93.40
2018-08-24T03:24:26.754Z,92.80
2018-08-24T03:26:55.827Z,92.10
2018-08-24T03:29:24.712Z,91.80
2018-08-24T03:31:53.690Z,91.50
2018-08-24T03:34:22.524Z,90.90
2018-08-24T03:36:51.397Z,90.10
2018-08-24T03:39:20.230Z,89.50
2018-08-24T03:41:49.155Z,89.00
2018-08-24T03:44:18.005Z,88.70
2018-08-24T03:46:46.866Z,88.60
2018-08-24T03:49:15.795Z,88.50
2018-08-24T03:51:44.669Z,87.90
2018-08-24T03:54:14.271Z,88.10
2018-08-24T03:56:44.556Z,87.90
2018-08-24T03:59:13.450Z,87.90
2018-08-24T04:01:42.533Z,87.80
2018-08-24T04:04:11.664Z,87.40
2018-08-24T04:06:40.547Z,86.80
2018-08-24T04:09:09.468Z,86.40
2018-08-24T04:11:39.447Z,86.40
2018-08-24T04:14:08.301Z,86.30
2018-08-24T04:16:42.558Z,85.90
2018-08-24T04:19:30.894Z,85.10
2018-08-24T04:22:00.072Z,84.50
2018-08-24T04:24:28.917Z,84.60
2018-08-24T04:26:58.108Z,83.80
2018-08-24T04:29:27.125Z,83.70
2018-08-24T04:31:56.011Z,83.90
2018-08-24T04:34:24.974Z,83.60
2018-08-24T04:36:54.023Z,83.10
2018-08-24T04:39:22.870Z,83.00
2018-08-24T04:41:51.772Z,82.90
2018-08-24T04:44:20.573Z,82.70
2018-08-24T04:46:49.507Z,82.60
2018-08-24T04:49:18.368Z,82.40
2018-08-24T04:51:47.508Z,82.40
2018-08-24T04:54:16.685Z,82.60
2018-08-24T04:56:46.358Z,82.20
2018-08-24T04:59:15.429Z,82.10
2018-08-24T05:01:45.449Z,82.10
2018-08-24T05:04:15.316Z,82.00
2018-08-24T05:06:44.613Z,82.00
2018-08-24T05:09:13.788Z,82.00
2018-08-24T05:11:43.128Z,81.90
2018-08-24T05:14:12.279Z,81.90
2018-08-24T05:16:41.722Z,81.90
2018-08-24T05:19:11.100Z,82.10
2018-08-24T05:21:40.134Z,82.20
2018-08-24T05:24:09.062Z,82.40
2018-08-24T05:26:38.001Z,82.50
2018-08-24T05:29:07.140Z,82.70
2018-08-24T05:31:36.188Z,82.90
2018-08-24T05:34:05.286Z,82.80
2018-08-24T05:36:34.363Z,82.70
2018-08-24T05:39:04.644Z,82.70
2018-08-24T05:41:33.637Z,83.00
2018-08-24T05:44:02.720Z,82.80
2018-08-24T05:46:31.783Z,82.70
2018-08-24T05:49:00.654Z,82.60
2018-08-24T05:51:29.811Z,82.60
2018-08-24T05:53:58.694Z,82.40
2018-08-24T05:56:27.549Z,82.50
2018-08-24T05:58:56.561Z,82.30
2018-08-24T06:01:25.471Z,82.30
2018-08-24T06:03:54.384Z,82.20
2018-08-24T06:06:24.457Z,82.00
2018-08-24T06:08:58.534Z,82.00
2018-08-24T06:11:27.424Z,82.10
2018-08-24T06:13:56.373Z,82.00
2018-08-24T06:16:25.302Z,82.00
2018-08-24T06:18:54.388Z,81.90
2018-08-24T06:21:23.758Z,81.90
2018-08-24T06:23:52.643Z,81.90
2018-08-24T06:26:21.533Z,81.90
2018-08-24T06:28:51.020Z,82.10
2018-08-24T06:31:19.968Z,81.80
2018-08-24T06:33:49.360Z,81.70
2018-08-24T06:36:18.434Z,81.20
2018-08-24T06:38:47.407Z,80.70
2018-08-24T06:41:16.271Z,80.60
2018-08-24T06:43:45.253Z,80.40
2018-08-24T06:46:14.461Z,80.30
2018-08-24T06:48:43.394Z,79.80
2018-08-24T06:51:12.605Z,79.60
2018-08-24T06:53:42.474Z,79.90
2018-08-24T06:56:11.814Z,79.20
2018-08-24T06:58:41.570Z,78.90
2018-08-24T07:01:11.155Z,78.50
2018-08-24T07:03:40.665Z,78.40
2018-08-24T07:06:09.921Z,78.00
2018-08-24T07:08:39.054Z,77.30
2018-08-24T07:11:08.789Z,77.00
2018-08-24T07:13:38.721Z,76.90
2018-08-24T07:16:08.210Z,77.10
2018-08-24T07:18:37.879Z,77.40
2018-08-24T07:21:07.281Z,77.60
2018-08-24T07:23:37.365Z,77.20
2018-08-24T07:26:07.277Z,76.90
2018-08-24T07:28:36.754Z,76.50
2018-08-24T07:31:05.963Z,76.60
2018-08-24T07:33:35.407Z,76.50
2018-08-24T07:36:05.661Z,75.80
2018-08-24T07:38:36.852Z,76.30
2018-08-24T07:41:06.183Z,76.20
2018-08-24T07:43:36.540Z,75.90
2018-08-24T07:46:07.675Z,76.20
2018-08-24T07:48:37.610Z,76.60
2018-08-24T07:51:08.375Z,75.90
2018-08-24T07:53:37.319Z,75.80
2018-08-24T07:56:06.871Z,75.30
2018-08-24T07:58:35.738Z,74.80
2018-08-24T08:01:04.897Z,74.60
2018-08-24T08:03:33.867Z,74.60
2018-08-24T08:06:02.912Z,74.40
2018-08-24T08:08:32.032Z,73.70
2018-08-24T08:11:00.939Z,73.90
2018-08-24T08:13:29.943Z,74.00
2018-08-24T08:15:59.876Z,73.50
2018-08-24T08:18:28.939Z,72.20
2018-08-24T08:20:57.968Z,72.30
2018-08-24T08:23:27.111Z,72.00
2018-08-24T08:25:56.243Z,71.30
2018-08-24T08:28:25.224Z,71.40
2018-08-24T08:30:54.199Z,71.40
2018-08-24T08:33:23.522Z,71.80
2018-08-24T08:35:52.609Z,72.00
2018-08-24T08:38:21.653Z,71.30
2018-08-24T08:40:50.535Z,70.70
2018-08-24T08:43:19.614Z,70.50
2018-08-24T08:45:48.953Z,70.50
2018-08-24T08:48:18.254Z,70.20
2018-08-24T08:50:47.416Z,69.90
2018-08-24T08:53:16.358Z,69.80
2018-08-24T08:55:45.380Z,70.00
2018-08-24T08:58:15.089Z,69.10
2018-08-24T09:00:44.235Z,69.50
2018-08-24T09:03:13.258Z,68.70
2018-08-24T09:05:42.153Z,68.80
2018-08-24T09:08:11.394Z,67.20
2018-08-24T09:10:41.550Z,68.10
2018-08-24T09:13:10.693Z,67.50
2018-08-24T09:15:39.839Z,67.50
2018-08-24T09:18:14.018Z,66.30
2018-08-24T09:20:48.275Z,66.40
2018-08-24T09:23:22.350Z,66.80
2018-08-24T09:25:56.715Z,66.20
2018-08-24T09:28:35.949Z,66.40
2018-08-24T09:31:12.564Z,66.10
2018-08-24T09:33:41.517Z,66.90
2018-08-24T09:36:16.063Z,68.20
2018-08-24T09:38:45.300Z,68.80
2018-08-24T09:41:14.387Z,67.40
2018-08-24T09:43:48.709Z,66.60
2018-08-24T09:46:17.709Z,66.40
2018-08-24T09:48:52.232Z,65.80
2018-08-24T09:51:25.801Z,64.50
2018-08-24T09:54:00.253Z,63.40
2018-08-24T09:56:30.692Z,61.90
2018-08-24T09:59:00.352Z,60.70
2018-08-24T10:01:34.765Z,62.00
2018-08-24T10:04:09.208Z,62.80
2018-08-24T10:06:43.569Z,62.60
2018-08-24T10:09:13.958Z,60.70
2018-08-24T10:11:43.170Z,60.50
2018-08-24T10:14:12.654Z,60.00
2018-08-24T10:16:41.878Z,60.00
2018-08-24T10:19:13.283Z,60.80
2018-08-24T10:21:42.960Z,60.60
2018-08-24T10:24:12.046Z,61.30
2018-08-24T10:26:41.145Z,61.40
2018-08-24T10:29:10.439Z,60.80
2018-08-24T10:31:39.492Z,59.70
2018-08-24T10:34:08.625Z,60.50
2018-08-24T10:36:38.053Z,61.20
2018-08-24T10:39:10.758Z,61.70
2018-08-24T10:41:39.907Z,60.50
2018-08-24T10:44:09.106Z,58.90
2018-08-24T10:46:38.176Z,57.90
2018-08-24T10:49:07.258Z,56.90
2018-08-24T10:51:36.310Z,55.80
2018-08-24T10:54:05.521Z,54.80
2018-08-24T10:56:35.057Z,53.50
2018-08-24T10:59:04.456Z,52.40
2018-08-24T11:01:33.641Z,51.50
2018-08-24T11:04:02.737Z,51.50
2018-08-24T11:06:31.716Z,51.20
2018-08-24T11:09:00.536Z,51.60
2018-08-24T11:11:29.522Z,52.00
2018-08-24T11:13:58.397Z,52.20
2018-08-24T11:16:27.254Z,50.60
2018-08-24T11:18:56.266Z,50.80
2018-08-24T11:21:25.133Z,50.20
2018-08-24T11:23:54.138Z,49.90
2018-08-24T11:26:23.183Z,50.60
2018-08-24T11:28:52.452Z,51.10
2018-08-24T11:31:21.595Z,50.40
2018-08-24T11:33:50.661Z,49.20
2018-08-24T11:36:19.673Z,47.70
2018-08-24T11:38:49.719Z,46.50
2018-08-24T11:41:18.962Z,46.30
2018-08-24T11:43:47.859Z,47.10
2018-08-24T11:46:17.852Z,47.40
2018-08-24T11:48:46.774Z,47.80
2018-08-24T11:51:15.884Z,48.20
2018-08-24T11:53:44.779Z,47.80
2018-08-24T11:56:13.803Z,48.90
2018-08-24T11:58:42.841Z,48.30
2018-08-24T12:01:11.761Z,47.50
2018-08-24T12:03:40.825Z,45.00
2018-08-24T12:06:09.775Z,43.40
2018-08-24T12:08:38.878Z,45.30
2018-08-24T12:11:08.114Z,45.40
2018-08-24T12:13:37.386Z,45.60
2018-08-24T12:16:06.472Z,45.50
2018-08-24T12:18:35.560Z,45.30
2018-08-24T12:21:04.894Z,44.90
2018-08-24T12:23:34.059Z,44.60
2018-08-24T12:26:03.086Z,43.30
2018-08-24T12:28:32.109Z,42.60
2018-08-24T12:31:01.324Z,43.80
2018-08-24T12:33:30.439Z,43.30
2018-08-24T12:36:00.507Z,44.20
2018-08-24T12:38:29.771Z,44.40
2018-08-24T12:40:58.997Z,43.70
2018-08-24T12:43:35.088Z,43.60
2018-08-24T12:46:04.388Z,43.30
2018-08-24T12:48:33.814Z,42.40
2018-08-24T12:51:02.882Z,42.40
2018-08-24T12:53:32.126Z,41.70
2018-08-24T12:56:01.004Z,41.90
2018-08-24T12:58:30.031Z,41.40
2018-08-24T13:00:59.248Z,40.60
2018-08-24T13:03:28.281Z,39.70
2018-08-24T13:05:57.391Z,39.50
2018-08-24T13:08:26.615Z,39.30
2018-08-24T13:10:55.632Z,38.90
2018-08-24T13:13:24.565Z,37.50
2018-08-24T13:15:53.550Z,37.40
2018-08-24T13:18:22.757Z,37.40
2018-08-24T13:20:51.805Z,37.70
2018-08-24T13:23:20.733Z,37.70
2018-08-24T13:25:49.636Z,37.60
2018-08-24T13:28:19.007Z,37.60
2018-08-24T13:30:48.168Z,36.60
2018-08-24T13:33:17.249Z,35.60
2018-08-24T13:35:46.319Z,34.40
2018-08-24T13:38:15.279Z,34.80
2018-08-24T13:40:44.206Z,34.60
2018-08-24T13:43:13.245Z,34.50
2018-08-24T13:45:42.192Z,34.50
2018-08-24T13:48:11.378Z,34.60
2018-08-24T13:50:40.359Z,34.50
2018-08-24T13:53:09.238Z,34.50
2018-08-24T13:55:38.311Z,33.90
2018-08-24T13:58:07.340Z,34.10
2018-08-24T14:00:36.338Z,34.00
2018-08-24T14:03:05.297Z,34.00
2018-08-24T14:05:35.438Z,33.90
2018-08-24T14:08:04.572Z,34.30
2018-08-24T14:10:33.550Z,34.60
2018-08-24T14:13:02.490Z,35.10
2018-08-24T14:15:31.520Z,35.50
2018-08-24T14:18:01.942Z,35.60
2018-08-24T14:20:31.899Z,36.00
2018-08-24T14:23:01.190Z,36.80
2018-08-24T14:25:30.553Z,37.10
2018-08-24T14:27:59.354Z,37.50
2018-08-24T14:30:28.221Z,37.70
2018-08-24T14:32:57.574Z,37.90
2018-08-24T14:35:26.541Z,38.20
2018-08-24T14:37:55.493Z,38.40
2018-08-24T14:40:25.414Z,38.60
2018-08-24T14:42:54.491Z,38.70
2018-08-24T14:45:23.964Z,38.90
2018-08-24T14:47:52.931Z,38.70
2018-08-24T14:50:21.794Z,38.30
2018-08-24T14:52:50.907Z,38.50
2018-08-24T14:55:20.880Z,38.10
2018-08-24T14:57:49.953Z,38.50
2018-08-24T15:00:19.021Z,39.10
2018-08-24T15:02:47.822Z,39.40
2018-08-24T15:05:16.758Z,38.80
2018-08-24T15:07:45.666Z,37.70
2018-08-24T15:10:14.963Z,36.90
2018-08-24T15:12:43.841Z,36.60
2018-08-24T15:15:12.675Z,36.10
2018-08-24T15:17:41.576Z,35.90
2018-08-24T15:20:10.583Z,35.30
2018-08-24T15:22:39.444Z,35.40
2018-08-24T15:25:08.446Z,35.30
2018-08-24T15:27:37.258Z,35.40
2018-08-24T15:30:06.570Z,35.40
2018-08-24T15:32:35.551Z,35.80
2018-08-24T15:35:04.571Z,36.00
2018-08-24T15:37:33.777Z,36.50
2018-08-24T15:40:03.216Z,36.50
2018-08-24T15:42:32.936Z,36.60
2018-08-24T15:45:01.775Z,37.00
2018-08-24T15:47:30.619Z,37.10
2018-08-24T15:49:59.463Z,36.90
2018-08-24T15:52:28.290Z,35.50
2018-08-24T15:54:57.224Z,35.20
2018-08-24T15:57:27.097Z,35.50
2018-08-24T15:59:56.110Z,35.70
2018-08-24T16:02:28.732Z,35.90
2018-08-24T16:04:57.805Z,36.20
2018-08-24T16:07:26.688Z,36.30
2018-08-24T16:09:56.415Z,36.20
2018-08-24T16:12:26.204Z,36.30
2018-08-24T16:14:55.156Z,36.40
2018-08-24T16:17:24.191Z,36.60
2018-08-24T16:19:53.052Z,36.50
2018-08-24T16:22:21.838Z,36.80
2018-08-24T16:24:50.763Z,37.10
2018-08-24T16:27:23.278Z,37.20
2018-08-24T16:29:54.032Z,37.10
2018-08-24T16:32:23.036Z,37.10
2018-08-24T16:34:52.247Z,37.40
2018-08-24T16:37:21.297Z,37.60
2018-08-24T16:39:50.368Z,37.60
2018-08-24T16:42:19.211Z,37.60
2018-08-24T16:44:48.134Z,37.60
2018-08-24T16:47:16.977Z,37.40
2018-08-24T16:49:45.863Z,37.20
2018-08-24T16:52:14.706Z,37.80
2018-08-24T16:54:43.478Z,37.30
2018-08-24T16:57:13.804Z,37.60
2018-08-24T16:59:42.919Z,37.80
2018-08-24T17:02:11.844Z,38.00
2018-08-24T17:04:40.722Z,38.20
2018-08-24T17:07:09.593Z,38.10
2018-08-24T17:09:45.001Z,38.10
2018-08-24T17:12:13.817Z,38.30
2018-08-24T17:14:42.526Z,38.30
2018-08-24T17:17:11.497Z,38.40
2018-08-24T17:19:40.379Z,38.30
2018-08-24T17:22:09.238Z,38.10
2018-08-24T17:24:38.042Z,38.10
2018-08-24T17:27:06.906Z,38.20
2018-08-24T17:29:35.938Z,38.20
2018-08-24T17:32:04.711Z,38.40
2018-08-24T17:34:33.534Z,38.50
2018-08-24T17:37:02.667Z,38.60
2018-08-24T17:39:31.406Z,38.50
2018-08-24T17:42:00.249Z,38.90
2018-08-24T17:44:29.092Z,38.90
2018-08-24T17:46:57.972Z,38.90
2018-08-24T17:49:26.748Z,39.00
2018-08-24T17:51:55.602Z,39.00
2018-08-24T17:54:24.591Z,39.20
2018-08-24T17:56:53.429Z,39.20
2018-08-24T17:59:22.446Z,39.30
2018-08-24T18:01:51.290Z,39.50
2018-08-24T18:04:20.178Z,39.60
2018-08-24T18:06:49.096Z,39.80
2018-08-24T18:09:18.144Z,39.90
2018-08-24T18:11:46.882Z,40.10
2018-08-24T18:14:15.697Z,40.20
2018-08-24T18:16:44.551Z,40.30
2018-08-24T18:19:13.253Z,40.30
2018-08-24T18:21:42.097Z,40.50
2018-08-24T18:24:10.945Z,40.70
2018-08-24T18:26:39.676Z,40.80
2018-08-24T18:29:08.675Z,40.90
2018-08-24T18:31:37.673Z,41.10
2018-08-24T18:34:06.690Z,41.10
2018-08-24T18:36:35.461Z,41.20
2018-08-24T18:39:08.478Z,41.30
2018-08-24T18:41:37.301Z,41.60
2018-08-24T18:44:06.340Z,41.50
2018-08-24T18:46:35.213Z,41.80
2018-08-24T18:49:04.046Z,41.90
2018-08-24T18:51:32.821Z,42.00
2018-08-24T18:54:01.650Z,42.10
2018-08-24T18:56:30.604Z,42.20
2018-08-24T18:58:59.439Z,42.40
2018-08-24T19:01:28.192Z,42.40
2018-08-24T19:03:57.066Z,42.40
2018-08-24T19:06:26.875Z,42.50
2018-08-24T19:08:55.693Z,42.60
2018-08-24T19:11:29.817Z,42.70
2018-08-24T19:13:58.759Z,42.80
2018-08-24T19:16:27.540Z,42.90
2018-08-24T19:19:01.634Z,43.00
2018-08-24T19:21:35.636Z,43.10
2018-08-24T19:24:04.436Z,43.30
2018-08-24T19:26:33.256Z,43.40
2018-08-24T19:29:07.311Z,43.50
2018-08-24T19:31:36.149Z,43.60
2018-08-24T19:34:05.123Z,43.80
2018-08-24T19:36:33.918Z,43.90
2018-08-24T19:39:02.768Z,44.10
2018-08-24T19:41:36.877Z,44.30
2018-08-24T19:44:05.954Z,44.40
2018-08-24T19:46:34.856Z,44.60
2018-08-24T19:49:09.063Z,44.90
2018-08-24T19:51:37.844Z,44.90
2018-08-24T19:54:06.698Z,45.00
2018-08-24T19:56:35.686Z,45.20
2018-08-24T19:59:06.454Z,45.20
2018-08-24T20:01:37.980Z,45.30
2018-08-24T20:04:13.704Z,45.40
2018-08-24T20:06:47.897Z,45.50
2018-08-24T20:09:22.140Z,45.60
2018-08-24T20:11:52.018Z,45.70
2018-08-24T20:14:26.315Z,45.90
2018-08-24T20:17:58.490Z,45.80
2018-08-24T20:20:27.388Z,46.00
2018-08-24T20:22:56.238Z,46.10
2018-08-24T20:25:25.198Z,46.10
2018-08-24T20:27:53.907Z,46.20
2018-08-24T20:30:22.627Z,46.20
2018-08-24T20:32:51.408Z,46.40
2018-08-24T20:35:20.338Z,46.50
2018-08-24T20:37:49.255Z,46.40
2018-08-24T20:40:18.107Z,46.50
2018-08-24T20:42:46.952Z,46.60
2018-08-24T20:45:15.781Z,46.70
2018-08-24T20:47:44.661Z,46.80
2018-08-24T20:50:13.351Z,47.00
2018-08-24T20:52:42.264Z,47.30
2018-08-24T20:55:10.991Z,47.10
2018-08-24T20:57:39.791Z,47.20
2018-08-24T21:00:08.549Z,47.10
2018-08-24T21:02:37.378Z,47.10
2018-08-24T21:05:06.484Z,47.10
2018-08-24T21:07:35.181Z,47.20
2018-08-24T21:10:04.291Z,47.30
2018-08-24T21:12:33.266Z,47.50
2018-08-24T21:15:02.212Z,47.90
2018-08-24T21:17:30.957Z,47.60
2018-08-24T21:19:59.761Z,47.80
2018-08-24T21:22:28.481Z,47.80
2018-08-24T21:24:57.375Z,47.70
2018-08-24T21:27:27.006Z,47.80
2018-08-24T21:29:55.751Z,47.80
2018-08-24T21:32:24.511Z,47.80
2018-08-24T21:34:53.228Z,48.00
2018-08-24T21:37:22.101Z,48.10
2018-08-24T21:39:51.136Z,48.10
2018-08-24T21:42:19.881Z,48.10
2018-08-24T21:44:48.601Z,48.20
2018-08-24T21:47:17.419Z,48.10
2018-08-24T21:49:46.145Z,48.20
2018-08-24T21:52:14.897Z,48.10
2018-08-24T21:54:43.733Z,48.00
2018-08-24T21:57:12.391Z,48.20
2018-08-24T21:59:41.270Z,48.10
2018-08-24T22:02:10.136Z,48.20
2018-08-24T22:04:39.056Z,48.20
2018-08-24T22:07:08.214Z,48.50
2018-08-24T22:09:36.940Z,48.30
2018-08-24T22:12:05.659Z,48.40
2018-08-24T22:14:34.481Z,48.40
2018-08-24T22:17:03.219Z,48.60
2018-08-24T22:19:32.015Z,48.60
2018-08-24T22:22:01.386Z,48.60
2018-08-24T22:24:30.084Z,48.70
2018-08-24T22:26:58.883Z,48.90
2018-08-24T22:29:27.617Z,49.00
2018-08-24T22:31:56.301Z,49.00
2018-08-24T22:34:25.140Z,49.20
2018-08-24T22:36:54.137Z,49.20
2018-08-24T22:39:23.130Z,49.20
2018-08-24T22:41:52.083Z,49.20
2018-08-24T22:44:21.713Z,49.20
2018-08-24T22:46:50.416Z,49.30
2018-08-24T22:49:19.139Z,49.40
2018-08-24T22:51:47.865Z,49.40
2018-08-24T22:54:16.556Z,49.30
2018-08-24T22:56:45.342Z,49.40
2018-08-24T22:59:14.221Z,49.40
2018-08-24T23:01:43.006Z,49.50
2018-08-24T23:04:11.820Z,49.50
2018-08-24T23:06:41.490Z,49.50
2018-08-24T23:09:11.013Z,49.50
2018-08-24T23:11:39.917Z,49.50
2018-08-24T23:14:08.786Z,49.60
2018-08-24T23:16:37.665Z,49.60
2018-08-24T23:19:06.480Z,49.60
2018-08-24T23:21:35.219Z,49.70
2018-08-24T23:24:04.946Z,49.70
2018-08-24T23:26:33.653Z,49.70
2018-08-24T23:29:02.259Z,49.60
2018-08-24T23:31:31.000Z,49.70
2018-08-24T23:33:59.679Z,49.90
2018-08-24T23:36:28.453Z,49.90
2018-08-24T23:38:57.157Z,50.00
2018-08-24T23:41:25.880Z,50.10
2018-08-24T23:43:54.864Z,50.10
2018-08-24T23:46:23.740Z,50.20
2018-08-24T23:48:52.471Z,50.40
2018-08-24T23:51:21.234Z,50.40
2018-08-24T23:53:49.913Z,50.40
2018-08-24T23:56:18.641Z,50.50
2018-08-24T23:58:47.349Z,50.50
